Sct Breithorn — HBHC — position and weather

sailwx.info

Track history (hours):
 
Tides and Currents Weather Stations Pressure Air Temp Water Temp Dewpoint Dewpoint Depression Visibility Wind Speed Wind Dir Waves Ship Positions

Sct Breithorn

Last reported at 2016-Aug-30 12:31 UTC. Time now 2016-Aug-30 13:16 UTC.
Position N 51°15' E 004°22'.

Length 165 m; draft 7 m.

Type: Ship (hazmat cat A). MMSI: 269848000.

Date/timePositionNaut miles runAvg speedWind from/ knotsBaromVisibWave heightAir tempDewpointWater temp
2016-Aug-30 12:31N 51°15' E 004°22'0 0.0
2016-Aug-30 11:31N 51°15' E 004°22'0 0.0
2016-Aug-30 10:31N 51°15' E 004°22'0 0.0
2016-Aug-30 09:31N 51°15' E 004°22'0 0.0
2016-Aug-30 08:31N 51°15' E 004°22'0 0.0
2016-Aug-30 07:31N 51°15' E 004°22'0 0.0
2016-Aug-30 06:31N 51°15' E 004°22'0 0.0
2016-Aug-30 05:31N 51°15' E 004°22'0 0.0
2016-Aug-30 04:31N 51°15' E 004°22'0 0.0
2016-Aug-30 03:31N 51°15' E 004°22'0 0.0
2016-Aug-30 02:31N 51°15' E 004°22'0 0.0
2016-Aug-30 01:31N 51°15' E 004°22'0 0.0
2016-Aug-30 00:31N 51°15' E 004°22'0 0.0
2016-Aug-29 23:31N 51°15' E 004°22'0 0.0
2016-Aug-29 22:31N 51°15' E 004°22'0 0.0
2016-Aug-29 21:31N 51°15' E 004°22'0 0.0
2016-Aug-29 20:31N 51°15' E 004°22'0 0.0
2016-Aug-29 19:31N 51°15' E 004°22'0 0.0
2016-Aug-29 18:31N 51°15' E 004°22'0 0.0
2016-Aug-29 17:31N 51°15' E 004°22'0 0.0
2016-Aug-29 16:31N 51°15' E 004°22'0 0.0
2016-Aug-29 15:31N 51°15' E 004°22'0 0.0
2016-Aug-29 14:31N 51°15' E 004°22'0 0.0
2016-Aug-29 13:31N 51°15' E 004°22'0 0.0
2016-Aug-29 12:31N 51°15' E 004°22'5 5.0
2016-Aug-29 11:33N 51°19' E 004°18'2 1.6
2016-Aug-29 10:34N 51°21' E 004°17'0 0.0
2016-Aug-29 09:33N 51°21' E 004°17'5 4.6
2016-Aug-29 08:33N 51°24' E 004°12'9 8.7
2016-Aug-29 07:33N 51°24' E 003°58'9 9.4
2016-Aug-29 06:33N 51°25' E 003°43'8 8.1
2016-Aug-29 05:33N 51°25' E 003°30'1110.9
2016-Aug-29 04:33N 51°24' E 003°12'1010.2
2016-Aug-29 03:33N 51°22' E 002°56'1211.5
2016-Aug-29 02:33N 51°22' E 002°37'1 0.8
2016-Aug-29 01:33N 51°23' E 002°37'2 2.3
2016-Aug-29 00:31N 51°24' E 002°34'0 0.0
2016-Aug-28 23:31N 51°24' E 002°34'0 0.0
2016-Aug-28 22:31N 51°24' E 002°34'0 0.0
2016-Aug-28 21:31N 51°24' E 002°34'0 0.0
2016-Aug-28 20:31N 51°24' E 002°34'0 0.0
2016-Aug-28 19:31N 51°24' E 002°34'0 0.0
2016-Aug-28 18:32N 51°24' E 002°34'0 0.0
2016-Aug-28 17:31N 51°24' E 002°34'0 0.0
2016-Aug-28 16:28N 51°24' E 002°34'0 0.0
2016-Aug-28 15:32N 51°24' E 002°34'0 0.0
2016-Aug-28 14:31N 51°24' E 002°34'0 0.0
2016-Aug-28 13:31N 51°24' E 002°34'2 2.1
2016-Aug-28 12:34N 51°23' E 002°32'1313.2
2016-Aug-28 11:33N 51°19' E 002°11'1010.2
2016-Aug-28 10:34N 51°26' E 001°59'1110.6
2016-Aug-28 09:33N 51°34' E 002°10'1211.3
2016-Aug-28 08:29N 51°43' E 002°23'1112.0
2016-Aug-28 07:33N 51°51' E 002°36'1313.4
2016-Aug-28 06:33N 52°04' E 002°37'1513.8
2016-Aug-28 05:29N 52°18' E 002°43'2014.0
2016-Aug-28 04:04N 52°36' E 002°58'813.7
2016-Aug-28 03:32N 52°43' E 003°04'1313.5
2016-Aug-28 02:33N 52°54' E 003°14'1313.0
2016-Aug-28 01:33N 53°06' E 003°21'1312.6
2016-Aug-28 00:33N 53°18' E 003°28'1312.5
2016-Aug-27 23:33N 53°30' E 003°34'3812.6
2016-Aug-27 20:33N 53°59' E 004°16'1413.5
2016-Aug-27 19:33N 54°03' E 004°38'10 9.7
2016-Aug-27 18:33N 53°59' E 004°23'8 7.3
2016-Aug-27 17:26N 54°03' E 004°35'1213.5
2016-Aug-27 16:33N 54°04' E 004°55'4 4.1
2016-Aug-27 15:33N 54°02' E 005°00'1412.3
2016-Aug-27 14:24N 53°56' E 004°38'1413.1
2016-Aug-27 13:22N 53°46' E 004°22'1113.1
2016-Aug-27 12:33N 53°40' E 004°07'1413.0
2016-Aug-27 11:30N 53°32' E 003°49'7 0.7
2016-Aug-27 01:21N 53°26' E 003°43'62 8.6
2016-Aug-26 18:07N 54°04' E 005°06'97 7.2
2016-Aug-26 04:33N 52°28' E 004°36'2 2.5
2016-Aug-26 03:33N 52°28' E 004°40'7 6.7
2016-Aug-26 02:33N 52°24' E 004°50'0 0.0
2016-Aug-26 01:31N 52°24' E 004°50'0 0.0
2016-Aug-26 00:28N 52°24' E 004°50'0 0.0
2016-Aug-25 23:31N 52°24' E 004°50'0 0.0
2016-Aug-25 22:25N 52°24' E 004°50'0 0.0
2016-Aug-25 21:31N 52°24' E 004°50'0 0.0
2016-Aug-25 20:31N 52°24' E 004°50'0 0.0
2016-Aug-25 19:28N 52°24' E 004°50'0 0.0
2016-Aug-25 18:28N 52°24' E 004°50'0 0.0
2016-Aug-25 17:31N 52°24' E 004°50'0 0.0
2016-Aug-25 16:31N 52°24' E 004°50'0 0.0
2016-Aug-25 15:28N 52°24' E 004°50'0 0.0
2016-Aug-25 14:31N 52°24' E 004°50'0 0.0
2016-Aug-25 13:31N 52°24' E 004°50'0 0.0
2016-Aug-25 12:31N 52°24' E 004°50'0 0.0
2016-Aug-25 11:07N 52°24' E 004°50'0 0.0
2016-Aug-25 10:28N 52°24' E 004°50'0 0.0
2016-Aug-25 09:28N 52°24' E 004°50'0 0.0
2016-Aug-25 08:31N 52°24' E 004°50'0 0.0
2016-Aug-25 07:28N 52°24' E 004°50'0 0.0
2016-Aug-25 06:31N 52°24' E 004°50'0 0.0
2016-Aug-25 04:31N 52°24' E 004°50'0 0.0
2016-Aug-25 03:31N 52°24' E 004°50'0 0.0
2016-Aug-25 02:28N 52°24' E 004°50'0 0.0
2016-Aug-25 01:25N 52°24' E 004°50'0 0.0
2016-Aug-25 00:22N 52°24' E 004°50'0 0.0
2016-Aug-24 23:28N 52°24' E 004°50'1 1.4
2016-Aug-24 22:34N 52°25' E 004°48'8 7.7
2016-Aug-24 21:33N 52°28' E 004°37'1 1.3
2016-Aug-24 20:33N 52°28' E 004°34'6 6.2
2016-Aug-24 19:33N 52°29' E 004°24'1111.5
2016-Aug-24 18:33N 52°29' E 004°05'1413.9
2016-Aug-24 17:33N 52°26' E 003°43'1313.0
2016-Aug-24 16:34N 52°28' E 003°22'1613.2
2016-Aug-24 15:19N 52°34' E 002°57'4 1.4
2016-Aug-24 12:31N 52°31' E 003°00'33 6.6
2016-Aug-24 07:31N 53°02' E 003°18'1311.7
2016-Aug-24 06:26N 53°14' E 003°25'2512.6
2016-Aug-24 04:26N 53°38' E 003°37'1212.9
2016-Aug-24 03:31N 53°48' E 003°50'1313.6
2016-Aug-24 02:33N 53°55' E 004°08'1313.2
2016-Aug-24 01:33N 54°02' E 004°27'1313.0
2016-Aug-24 00:33N 54°04' E 004°49'1010.1
2016-Aug-23 23:33N 54°04' E 005°06'1713.6
2016-Aug-23 22:20N 53°57' E 004°40'1214.7
2016-Aug-23 21:32N 53°49' E 004°26'1514.5
2016-Aug-23 20:32N 53°39' E 004°07'1414.4
2016-Aug-23 19:33N 53°31' E 003°47'1511.0
2016-Aug-23 18:12N 53°21' E 003°29'812.0
2016-Aug-23 17:33N 53°29' E 003°33'1312.8
2016-Aug-23 16:31N 53°41' E 003°39'1413.4
2016-Aug-23 15:30N 53°51' E 003°56'3913.1
2016-Aug-23 12:34N 54°05' E 004°57'4 4.1
2016-Aug-23 11:33N 54°01' E 004°58'6 0.6
2016-Aug-23 01:33N 54°04' E 004°48'1110.9
2016-Aug-23 00:33N 54°04' E 005°06'1313.3
2016-Aug-22 23:33N 53°60' E 004°45'9 0.9
2016-Aug-22 13:28N 54°05' E 004°57'1212.5
2016-Aug-22 12:32N 54°07' E 005°17'1212.0
2016-Aug-22 11:33N 54°08' E 005°37'3812.0
2016-Aug-22 08:21N 54°12' E 006°42'1112.5
2016-Aug-22 07:30N 54°12' E 007°00'1313.5
2016-Aug-22 06:33N 54°12' E 007°22'1313.3
2016-Aug-22 05:33N 54°02' E 007°37'1312.7
2016-Aug-22 04:34N 53°53' E 007°51'1414.3
2016-Aug-22 03:33N 53°46' E 008°12'1414.4
2016-Aug-22 02:33N 53°36' E 008°30'7 7.2
2016-Aug-22 01:33N 53°29' E 008°30'8 7.6
2016-Aug-22 00:28N 53°21' E 008°30'0 0.0
2016-Aug-21 23:34N 53°21' E 008°30'0 0.0
2016-Aug-21 22:34N 53°21' E 008°30'0 0.0
2016-Aug-21 21:34N 53°21' E 008°30'0 0.0
2016-Aug-21 20:34N 53°21' E 008°30'0 0.0
2016-Aug-21 19:34N 53°21' E 008°30'0 0.0
2016-Aug-21 18:34N 53°21' E 008°30'0 0.0
2016-Aug-21 17:33N 53°21' E 008°30'0 0.0
2016-Aug-21 16:34N 53°21' E 008°30'0 0.0
2016-Aug-21 15:34N 53°21' E 008°30'0 0.0
2016-Aug-21 14:31N 53°21' E 008°30'0 0.0
2016-Aug-21 13:34N 53°21' E 008°30'0 0.0
2016-Aug-21 12:34N 53°21' E 008°30'0 0.0
2016-Aug-21 11:34N 53°21' E 008°30'0 0.0
2016-Aug-21 10:34N 53°21' E 008°30'0 0.0
2016-Aug-21 09:31N 53°21' E 008°30'0 0.0
2016-Aug-21 08:33N 53°21' E 008°30'0 0.0
2016-Aug-21 07:28N 53°21' E 008°30'0 0.0
2016-Aug-21 06:28N 53°21' E 008°30'0 0.0
2016-Aug-21 05:31N 53°21' E 008°30'0 0.0
2016-Aug-21 04:34N 53°21' E 008°30'0 0.0
2016-Aug-21 03:31N 53°21' E 008°30'0 0.0
2016-Aug-21 02:33N 53°21' E 008°30'0 0.0
2016-Aug-21 01:34N 53°21' E 008°30'0 0.0
2016-Aug-21 00:34N 53°21' E 008°30'0 0.0
2016-Aug-20 23:33N 53°21' E 008°30'0 0.0
2016-Aug-20 22:34N 53°21' E 008°30'0 0.0
2016-Aug-20 21:31N 53°21' E 008°30'0 0.0
2016-Aug-20 20:33N 53°21' E 008°30'0 0.0
2016-Aug-20 19:31N 53°21' E 008°30'0 0.0
2016-Aug-20 18:31N 53°21' E 008°30'0 0.0
2016-Aug-20 17:31N 53°21' E 008°30'0 0.0
2016-Aug-20 16:34N 53°21' E 008°30'0 0.0
2016-Aug-20 15:31N 53°21' E 008°30'0 0.0
2016-Aug-20 14:34N 53°21' E 008°30'0 0.0
2016-Aug-20 13:28N 53°21' E 008°30'0 0.0
2016-Aug-20 12:31N 53°21' E 008°30'  
Track history (hours):
 
Tides and Currents Weather Stations Pressure Air Temp Water Temp Dewpoint Dewpoint Depression Visibility Wind Speed Wind Dir Waves Ship Positions

Sct Breithorn

Last reported at 2016-Aug-30 12:31 UTC. Time now 2016-Aug-30 13:16 UTC.
Position N 51°15' E 004°22'.

Length 165 m; draft 7 m.

Type: Ship (hazmat cat A). MMSI: 269848000.

Date/timePositionNaut miles runAvg speedWind from/ knotsBaromVisibWave heightAir tempDewpointWater temp
2016-Aug-30 12:31N 51°15' E 004°22'0 0.0
2016-Aug-30 11:31N 51°15' E 004°22'0 0.0
2016-Aug-30 10:31N 51°15' E 004°22'0 0.0
2016-Aug-30 09:31N 51°15' E 004°22'0 0.0
2016-Aug-30 08:31N 51°15' E 004°22'0 0.0
2016-Aug-30 07:31N 51°15' E 004°22'0 0.0
2016-Aug-30 06:31N 51°15' E 004°22'0 0.0
2016-Aug-30 05:31N 51°15' E 004°22'0 0.0
2016-Aug-30 04:31N 51°15' E 004°22'0 0.0
2016-Aug-30 03:31N 51°15' E 004°22'0 0.0
2016-Aug-30 02:31N 51°15' E 004°22'0 0.0
2016-Aug-30 01:31N 51°15' E 004°22'0 0.0
2016-Aug-30 00:31N 51°15' E 004°22'0 0.0
2016-Aug-29 23:31N 51°15' E 004°22'0 0.0
2016-Aug-29 22:31N 51°15' E 004°22'0 0.0
2016-Aug-29 21:31N 51°15' E 004°22'0 0.0
2016-Aug-29 20:31N 51°15' E 004°22'0 0.0
2016-Aug-29 19:31N 51°15' E 004°22'0 0.0
2016-Aug-29 18:31N 51°15' E 004°22'0 0.0
2016-Aug-29 17:31N 51°15' E 004°22'0 0.0
2016-Aug-29 16:31N 51°15' E 004°22'0 0.0
2016-Aug-29 15:31N 51°15' E 004°22'0 0.0
2016-Aug-29 14:31N 51°15' E 004°22'0 0.0
2016-Aug-29 13:31N 51°15' E 004°22'0 0.0
2016-Aug-29 12:31N 51°15' E 004°22'5 5.0
2016-Aug-29 11:33N 51°19' E 004°18'2 1.6
2016-Aug-29 10:34N 51°21' E 004°17'0 0.0
2016-Aug-29 09:33N 51°21' E 004°17'5 4.6
2016-Aug-29 08:33N 51°24' E 004°12'9 8.7
2016-Aug-29 07:33N 51°24' E 003°58'9 9.4
2016-Aug-29 06:33N 51°25' E 003°43'8 8.1
2016-Aug-29 05:33N 51°25' E 003°30'1110.9
2016-Aug-29 04:33N 51°24' E 003°12'1010.2
2016-Aug-29 03:33N 51°22' E 002°56'1211.5
2016-Aug-29 02:33N 51°22' E 002°37'1 0.8
2016-Aug-29 01:33N 51°23' E 002°37'2 2.3
2016-Aug-29 00:31N 51°24' E 002°34'0 0.0
2016-Aug-28 23:31N 51°24' E 002°34'0 0.0
2016-Aug-28 22:31N 51°24' E 002°34'0 0.0
2016-Aug-28 21:31N 51°24' E 002°34'0 0.0
2016-Aug-28 20:31N 51°24' E 002°34'0 0.0
2016-Aug-28 19:31N 51°24' E 002°34'0 0.0
2016-Aug-28 18:32N 51°24' E 002°34'0 0.0
2016-Aug-28 17:31N 51°24' E 002°34'0 0.0
2016-Aug-28 16:28N 51°24' E 002°34'0 0.0
2016-Aug-28 15:32N 51°24' E 002°34'0 0.0
2016-Aug-28 14:31N 51°24' E 002°34'0 0.0
2016-Aug-28 13:31N 51°24' E 002°34'2 2.1
2016-Aug-28 12:34N 51°23' E 002°32'1313.2
2016-Aug-28 11:33N 51°19' E 002°11'1010.2
2016-Aug-28 10:34N 51°26' E 001°59'1110.6
2016-Aug-28 09:33N 51°34' E 002°10'1211.3
2016-Aug-28 08:29N 51°43' E 002°23'1112.0
2016-Aug-28 07:33N 51°51' E 002°36'1313.4
2016-Aug-28 06:33N 52°04' E 002°37'1513.8
2016-Aug-28 05:29N 52°18' E 002°43'2014.0
2016-Aug-28 04:04N 52°36' E 002°58'813.7
2016-Aug-28 03:32N 52°43' E 003°04'1313.5
2016-Aug-28 02:33N 52°54' E 003°14'1313.0
2016-Aug-28 01:33N 53°06' E 003°21'1312.6
2016-Aug-28 00:33N 53°18' E 003°28'1312.5
2016-Aug-27 23:33N 53°30' E 003°34'3812.6
2016-Aug-27 20:33N 53°59' E 004°16'1413.5
2016-Aug-27 19:33N 54°03' E 004°38'10 9.7
2016-Aug-27 18:33N 53°59' E 004°23'8 7.3
2016-Aug-27 17:26N 54°03' E 004°35'1213.5
2016-Aug-27 16:33N 54°04' E 004°55'4 4.1
2016-Aug-27 15:33N 54°02' E 005°00'1412.3
2016-Aug-27 14:24N 53°56' E 004°38'1413.1
2016-Aug-27 13:22N 53°46' E 004°22'1113.1
2016-Aug-27 12:33N 53°40' E 004°07'1413.0
2016-Aug-27 11:30N 53°32' E 003°49'7 0.7
2016-Aug-27 01:21N 53°26' E 003°43'62 8.6
2016-Aug-26 18:07N 54°04' E 005°06'97 7.2
2016-Aug-26 04:33N 52°28' E 004°36'2 2.5
2016-Aug-26 03:33N 52°28' E 004°40'7 6.7
2016-Aug-26 02:33N 52°24' E 004°50'0 0.0
2016-Aug-26 01:31N 52°24' E 004°50'0 0.0
2016-Aug-26 00:28N 52°24' E 004°50'0 0.0
2016-Aug-25 23:31N 52°24' E 004°50'0 0.0
2016-Aug-25 22:25N 52°24' E 004°50'0 0.0
2016-Aug-25 21:31N 52°24' E 004°50'0 0.0
2016-Aug-25 20:31N 52°24' E 004°50'0 0.0
2016-Aug-25 19:28N 52°24' E 004°50'0 0.0
2016-Aug-25 18:28N 52°24' E 004°50'0 0.0
2016-Aug-25 17:31N 52°24' E 004°50'0 0.0
2016-Aug-25 16:31N 52°24' E 004°50'0 0.0
2016-Aug-25 15:28N 52°24' E 004°50'0 0.0
2016-Aug-25 14:31N 52°24' E 004°50'0 0.0
2016-Aug-25 13:31N 52°24' E 004°50'0 0.0
2016-Aug-25 12:31N 52°24' E 004°50'0 0.0
2016-Aug-25 11:07N 52°24' E 004°50'0 0.0
2016-Aug-25 10:28N 52°24' E 004°50'0 0.0
2016-Aug-25 09:28N 52°24' E 004°50'0 0.0
2016-Aug-25 08:31N 52°24' E 004°50'0 0.0
2016-Aug-25 07:28N 52°24' E 004°50'0 0.0
2016-Aug-25 06:31N 52°24' E 004°50'0 0.0
2016-Aug-25 04:31N 52°24' E 004°50'0 0.0
2016-Aug-25 03:31N 52°24' E 004°50'0 0.0
2016-Aug-25 02:28N 52°24' E 004°50'0 0.0
2016-Aug-25 01:25N 52°24' E 004°50'0 0.0
2016-Aug-25 00:22N 52°24' E 004°50'0 0.0
2016-Aug-24 23:28N 52°24' E 004°50'1 1.4
2016-Aug-24 22:34N 52°25' E 004°48'8 7.7
2016-Aug-24 21:33N 52°28' E 004°37'1 1.3
2016-Aug-24 20:33N 52°28' E 004°34'6 6.2
2016-Aug-24 19:33N 52°29' E 004°24'1111.5
2016-Aug-24 18:33N 52°29' E 004°05'1413.9
2016-Aug-24 17:33N 52°26' E 003°43'1313.0
2016-Aug-24 16:34N 52°28' E 003°22'1613.2
2016-Aug-24 15:19N 52°34' E 002°57'4 1.4
2016-Aug-24 12:31N 52°31' E 003°00'33 6.6
2016-Aug-24 07:31N 53°02' E 003°18'1311.7
2016-Aug-24 06:26N 53°14' E 003°25'2512.6
2016-Aug-24 04:26N 53°38' E 003°37'1212.9
2016-Aug-24 03:31N 53°48' E 003°50'1313.6
2016-Aug-24 02:33N 53°55' E 004°08'1313.2
2016-Aug-24 01:33N 54°02' E 004°27'1313.0
2016-Aug-24 00:33N 54°04' E 004°49'1010.1
2016-Aug-23 23:33N 54°04' E 005°06'1713.6
2016-Aug-23 22:20N 53°57' E 004°40'1214.7
2016-Aug-23 21:32N 53°49' E 004°26'1514.5
2016-Aug-23 20:32N 53°39' E 004°07'1414.4
2016-Aug-23 19:33N 53°31' E 003°47'1511.0
2016-Aug-23 18:12N 53°21' E 003°29'812.0
2016-Aug-23 17:33N 53°29' E 003°33'1312.8
2016-Aug-23 16:31N 53°41' E 003°39'1413.4
2016-Aug-23 15:30N 53°51' E 003°56'3913.1
2016-Aug-23 12:34N 54°05' E 004°57'4 4.1
2016-Aug-23 11:33N 54°01' E 004°58'6 0.6
2016-Aug-23 01:33N 54°04' E 004°48'1110.9
2016-Aug-23 00:33N 54°04' E 005°06'1313.3
2016-Aug-22 23:33N 53°60' E 004°45'9 0.9
2016-Aug-22 13:28N 54°05' E 004°57'1212.5
2016-Aug-22 12:32N 54°07' E 005°17'1212.0
2016-Aug-22 11:33N 54°08' E 005°37'3812.0
2016-Aug-22 08:21N 54°12' E 006°42'1112.5
2016-Aug-22 07:30N 54°12' E 007°00'1313.5
2016-Aug-22 06:33N 54°12' E 007°22'1313.3
2016-Aug-22 05:33N 54°02' E 007°37'1312.7
2016-Aug-22 04:34N 53°53' E 007°51'1414.3
2016-Aug-22 03:33N 53°46' E 008°12'1414.4
2016-Aug-22 02:33N 53°36' E 008°30'7 7.2
2016-Aug-22 01:33N 53°29' E 008°30'8 7.6
2016-Aug-22 00:28N 53°21' E 008°30'0 0.0
2016-Aug-21 23:34N 53°21' E 008°30'0 0.0
2016-Aug-21 22:34N 53°21' E 008°30'0 0.0
2016-Aug-21 21:34N 53°21' E 008°30'0 0.0
2016-Aug-21 20:34N 53°21' E 008°30'0 0.0
2016-Aug-21 19:34N 53°21' E 008°30'0 0.0
2016-Aug-21 18:34N 53°21' E 008°30'0 0.0
2016-Aug-21 17:33N 53°21' E 008°30'0 0.0
2016-Aug-21 16:34N 53°21' E 008°30'0 0.0
2016-Aug-21 15:34N 53°21' E 008°30'0 0.0
2016-Aug-21 14:31N 53°21' E 008°30'0 0.0
2016-Aug-21 13:34N 53°21' E 008°30'0 0.0
2016-Aug-21 12:34N 53°21' E 008°30'0 0.0
2016-Aug-21 11:34N 53°21' E 008°30'0 0.0
2016-Aug-21 10:34N 53°21' E 008°30'0 0.0
2016-Aug-21 09:31N 53°21' E 008°30'0 0.0
2016-Aug-21 08:33N 53°21' E 008°30'0 0.0
2016-Aug-21 07:28N 53°21' E 008°30'0 0.0
2016-Aug-21 06:28N 53°21' E 008°30'0 0.0
2016-Aug-21 05:31N 53°21' E 008°30'0 0.0
2016-Aug-21 04:34N 53°21' E 008°30'0 0.0
2016-Aug-21 03:31N 53°21' E 008°30'0 0.0
2016-Aug-21 02:33N 53°21' E 008°30'0 0.0
2016-Aug-21 01:34N 53°21' E 008°30'0 0.0
2016-Aug-21 00:34N 53°21' E 008°30'0 0.0
2016-Aug-20 23:33N 53°21' E 008°30'0 0.0
2016-Aug-20 22:34N 53°21' E 008°30'0 0.0
2016-Aug-20 21:31N 53°21' E 008°30'0 0.0
2016-Aug-20 20:33N 53°21' E 008°30'0 0.0
2016-Aug-20 19:31N 53°21' E 008°30'0 0.0
2016-Aug-20 18:31N 53°21' E 008°30'0 0.0
2016-Aug-20 17:31N 53°21' E 008°30'0 0.0
2016-Aug-20 16:34N 53°21' E 008°30'0 0.0
2016-Aug-20 15:31N 53°21' E 008°30'0 0.0
2016-Aug-20 14:34N 53°21' E 008°30'0 0.0
2016-Aug-20 13:28N 53°21' E 008°30'0 0.0
2016-Aug-20 12:31N 53°21' E 008°30'  

Dump ship's entire track history